world map with BQT marked

BQT - Airport

This information may not be accurate or current and is not valid for navigation or flight planning. No warranty of fitness for any purpose is made or implied.

flag of Brestskaya (Brest)flag of Belarus

Donate via PayPal

Additional information is available on the NEW Great Circle Mapper

Location
City:  Brest, Brestskaya (Brest), Belarus
Name:Brest Airport
ICAO / IATA:UMBB / BQT

Details
Type:Airport (Aerodrome, Airfield)
Use:Public/Civil
Latitude:52°06'30"N (52.108334)
Longitude:23°53'53"E (23.898056)
Elevation:468 ft (143 m)
Runways:1
Longest:8596 × 138 ft (2620 × 42 m)

Time
Timezone:UTC+2 (DST+3)

Weather
METAR:UMBB  132000Z 01004MPS 8000 OVC031CB 00/M01 Q1020 R11/290050 NOSIG
TAF:UMBB  (expired)

Related Locations
Nearby:
Farthest:CHT: 11337 mi / 18245 km
Waitangi [Tuuta], CIT, NZ

Find:

   beyond  
but within

Other Information
Maps:
Sources:

  


 


Great Circle Mapper   Great Circle Mapper
Great Circle Mapper FAQ   Great Circle Mapper FAQ
  Karl's Home Page
KLSē   KLSē Home
   GC on Facebook
Airlines of the World   Airlines of the World
Donate via PayPal


Copyright © 2004-2018, Karl L. Swartz. All rights reserved.
All trademarks mentioned herein belong to their respective owners.

Please see credits for attribution and copyright information.

Karl Swartz <karl@kls2.com>
  Powered by FreeBSD
Valid HTML 4.01!
Labeled with ICRA
hCard Microformat
Geo Microformat